KPHL/PHL METAR and TAF weather

Enter ICAO airport designator
Station Type Date Time Source
KPHL METAR 2019/06/18 16:50 UTC NOAA

KPHL 181650Z VRB06KT 10SM BKN015 BKN050 BKN130 OVC250 24/21 A2990 RMK AO2 $


Station Type Date Time Source
KPHL Decoded METAR 2019/06/18 16:50 UTC NOAA

PHILADELPHIA INTERNATIONAL AIRPT, PA, United States (KPHL) 39-52N 075-14W 18M
Jun 18, 2019 - 12:50 PM EDT / 2019.06.18 1650 UTC
Wind: Variable at 7 MPH (6 KT):0
Visibility: 10 mile(s):0
Sky conditions: overcast
Temperature: 75 F (24 C)
Dew Point: 69 F (21 C)
Relative Humidity: 83%
Pressure (altimeter): 29.9 in. Hg (1012 hPa)
ob: KPHL 181650Z VRB06KT 10SM BKN015 BKN050 BKN130 OVC250 24/21 A2990 RMK AO2
cycle: 17

Station Type Date Time Source
KPHL TAF 2019/06/18 15:58 UTC NOAA

TAF
AMD KPHL 181457Z 1815/1918 15004KT 6SM BR VCSH BKN008 OVC015
FM181600 19004KT P6SM VCSH BKN015
FM181800 24005KT P6SM SCT025 BKN050
FM182000 26009KT P6SM SHRA VCTS BKN035CB
FM190000 28005KT P6SM VCSH BKN040
FM190400 23004KT 3SM BR OVC007

Example: see airport list